Mount Jewett, Pennsylvania
Current Conditions -  °F | °C
As of 5:36 AM on Wednesday 22 Oct 2014 (Local Time) from KBFD Reporting Station
Overcast Overcast  
Wind Chill: 36°   Ceiling: 300
Heat Index: 42°   Visibility: 10mi
Dew Point: 39°   Wind: 12mph
Humidity: 89%   Direction: 350°N
Pressure: 30.06"   Gusts: NA
Location:  41.73°N, 78.64°W
Report Text: KBFD 220936Z AUTO 35010KT 10SM OVC003 06/04 A3006 RMK AO2 T00560039
Loading
Personal Weather Stations






























Interactive Weather Map
Tropical Storm Tracking
New forecast layout! Learn more

10-Day Weather Forecast

Advertisements
Track Severe Weather on mobile